Anshun, Guizhou

10:39 PM CST on July 30, 2014 (GMT +0800)
Guiyang (ZUGY) Elev 3734 ft | 26.54 °N, 106.80 °E | Change Station

Current weather conditions updated 39 minutes ago

Clear
Clear
73 °F
Feels Like 73 °F
N
4
Wind Variable Wind from SSE

Tomorrow is forecast to be Cooler than today. Scattered thunderstorms possible tomorrow night.

Today
High -- | Low -- °F
--% Chance of Precip.
Yesterday
High -- | Low -- °F
Precip. -- in
6:20 AM 7:44 PM
Waxing Crescent, 12% visible
Pressure 29.86 in
Visibility -9999.0 miles
Clouds
Dew Point 68 °F
Humidity 83%
Rainfall 0.00 in
Snow Depth Not available.
UV Not available.
Pollen Not available.
Air Quality Not available.
Flu Activity Not available.
METAR ZUGY 301400Z 16002MPS CAVOK 23/20 Q1011 NOSIG

More Conditions Fewer Conditions

Pressure 29.86 in
Visibility -9999.0 miles
Clouds
Dew Point 68 °F
Humidity 83%
Rainfall 0.00 in
Snow Depth Not available.
UV Not available.
Pollen Not available.
Air Quality Not available.
Flu Activity Not available.
METAR ZUGY 301400Z 16002MPS CAVOK 23/20 Q1011 NOSIG

More Conditions Fewer Conditions

10-Day Weather Forecast

Almanac

Astronomy

Jul. 30, 2014 Rise Set
Actual Time 6:20 AM CST 7:44 PM CST
Civil Twilight 5:55 AM CST 8:09 PM CST
Nautical Twilight 5:25 AM CST 8:39 PM CST
Astronomical Twilight 4:54 AM CST 9:10 PM CST
Moon 9:00 AM CST 9:35 PM CST
Length of Visible Light 14h 14m
Length of Day
13h 24m
Tomorrow will be 1m 7s shorter.
Waxing Crescent, 12% of the Moon is Illuminated
Today
Waxing Crescent
Aug 3
First Quarter
Aug 10
Full
Aug 17
Last Quarter
Aug 25
New

Yesterday's Extremes

Country Highs Country Lows

Community

WunderPhotos

Upload Photos

1,739,093 photos uploaded!

Nearby

Snow Depth

Not available.

Earthquake Activity

City Distance Mag. Time & Date
No recent earthquake activity has been reported nearby.
Minimum magnitude displayed is 2.5.

Coastal Water Temperatures

Place Temperature
No Stations Reporting

Nearby Weather Stations

There are no personal weather stations in this area.